Time;durP1;ratioP1;P1;durP2;ratioP2;P2;SDS_P1;SDS_P2;PMS_P1;PMS_P2;Temp;Humidity;BMP_temperature;BMP_pressure;BME280_temperature;BME280_humidity;BME280_pressure;Samples;Min_cycle;Max_cycle;Signal;HPM_P1;HPM_P2
2022/06/18 00:00:52;;;;;;;4.95;3.50;;;;;;;26.15;42.96;101624.13;5032748;28;20037;-70
2022/06/18 00:03:19;;;;;;;4.72;3.08;;;;;;;26.10;42.92;101626.59;5032649;28;20042;-69
2022/06/18 00:05:48;;;;;;;4.32;3.00;;;;;;;26.07;43.03;101624.22;5032900;28;20092;-69
2022/06/18 00:08:22;;;;;;;6.35;3.08;;;;;;;26.06;42.94;101628.03;5032779;28;20049;-69
2022/06/18 00:13:39;;;;;;;3.70;2.83;;;;;;;26.04;43.25;101627.38;5037626;28;20047;-69
2022/06/18 00:13:49;;;;;;;4.50;3.08;;;;;;;26.00;43.31;101624.13;5050274;28;20037;-70
2022/06/18 00:16:19;;;;;;;4.40;2.90;;;;;;;25.98;43.29;101620.69;5052354;28;20045;-69
2022/06/18 00:18:46;;;;;;;3.92;2.72;;;;;;;25.93;43.39;101610.25;5052458;28;20041;-70
2022/06/18 00:21:17;;;;;;;3.38;2.90;;;;;;;25.93;43.57;101614.91;5052332;28;20048;-70
2022/06/18 00:23:45;;;;;;;3.33;2.65;;;;;;;25.91;43.26;101617.00;5052144;28;20047;-70
2022/06/18 00:26:11;;;;;;;4.38;2.50;;;;;;;25.90;43.15;101623.56;5047305;28;20053;-69
2022/06/18 00:28:39;;;;;;;3.30;2.85;;;;;;;25.89;43.62;101619.94;5031001;28;20041;-69
2022/06/18 00:31:07;;;;;;;6.70;2.83;;;;;;;25.87;43.74;101610.16;5030761;28;20103;-69
2022/06/18 00:33:40;;;;;;;3.42;2.60;;;;;;;25.84;43.89;101622.41;5032030;28;20093;-69
2022/06/18 00:36:17;;;;;;;3.00;2.67;;;;;;;25.85;43.73;101617.75;5030797;28;20047;-69
2022/06/18 00:38:46;;;;;;;3.00;2.60;;;;;;;25.83;43.70;101615.19;5030702;28;20051;-69
2022/06/18 00:41:18;;;;;;;5.07;3.33;;;;;;;25.83;43.82;101617.09;5049621;28;20148;-69
2022/06/18 00:44:11;;;;;;;7.65;3.20;;;;;;;25.82;43.86;101609.88;5034039;28;20053;-69
2022/06/18 00:47:03;;;;;;;4.80;2.80;;;;;;;25.79;43.84;101611.13;5031762;28;20048;-69
2022/06/18 00:49:37;;;;;;;5.55;3.15;;;;;;;25.76;44.02;101614.25;5031838;28;20034;-69
2022/06/18 00:52:28;;;;;;;4.97;3.03;;;;;;;25.72;43.83;101604.69;5031290;28;20088;-69
2022/06/18 00:55:01;;;;;;;6.18;3.50;;;;;;;25.68;43.81;101608.84;5031763;28;20038;-69
2022/06/18 00:57:51;;;;;;;4.40;3.25;;;;;;;25.58;43.94;101616.50;5031751;28;20037;-69
2022/06/18 01:00:22;;;;;;;5.63;3.13;;;;;;;25.49;44.22;101609.38;5049224;28;20116;-69
2022/06/18 01:02:52;;;;;;;5.30;3.25;;;;;;;25.45;44.28;101610.78;5051455;28;20043;-69
2022/06/18 01:05:26;;;;;;;3.58;2.88;;;;;;;25.45;44.47;101616.28;5050144;28;20052;-69
2022/06/18 01:08:10;;;;;;;3.75;3.35;;;;;;;25.42;44.57;101608.41;5051521;28;20083;-69
2022/06/18 01:10:45;;;;;;;4.63;3.50;;;;;;;25.39;44.56;101611.53;5048924;28;20580;-69
2022/06/18 01:13:16;;;;;;;6.28;3.50;;;;;;;25.32;44.46;101611.44;5051312;28;20037;-69
2022/06/18 01:15:45;;;;;;;4.60;3.25;;;;;;;25.30;44.60;101617.13;5037299;28;20045;-69
2022/06/18 01:18:13;;;;;;;8.18;4.05;;;;;;;25.26;44.88;101615.75;5031558;28;20144;-69
2022/06/18 01:21:00;;;;;;;8.27;3.58;;;;;;;25.18;44.86;101610.34;5030109;28;20076;-69
2022/06/18 01:23:32;;;;;;;8.07;3.78;;;;;;;25.15;44.86;101610.72;5030085;28;20052;-69
2022/06/18 01:26:00;;;;;;;5.40;3.50;;;;;;;25.14;45.27;101606.25;5030173;28;20065;-69
2022/06/18 01:28:27;;;;;;;5.00;3.58;;;;;;;25.10;45.24;101604.91;5030150;28;20076;-68
2022/06/18 01:30:54;;;;;;;5.05;3.78;;;;;;;25.05;45.39;101604.63;5034595;28;20083;-69
2022/06/18 01:33:22;;;;;;;7.28;3.78;;;;;;;24.96;45.18;101595.56;5050494;28;20495;-69
2022/06/18 01:35:53;;;;;;;7.75;4.22;;;;;;;24.89;45.73;101591.00;5049865;28;20041;-68
2022/06/18 01:38:24;;;;;;;6.38;3.63;;;;;;;24.85;45.55;101603.38;5051928;28;20047;-69
2022/06/18 01:40:55;;;;;;;5.05;4.05;;;;;;;24.79;45.84;101604.13;5049503;28;20056;-69
2022/06/18 01:43:24;;;;;;;5.22;4.15;;;;;;;24.73;46.21;101605.72;5049653;28;20052;-69
2022/06/18 01:45:56;;;;;;;6.28;3.92;;;;;;;24.68;46.19;101606.25;5049804;28;20087;-69
2022/06/18 01:48:34;;;;;;;4.68;4.10;;;;;;;24.67;46.15;101603.69;5047569;28;20179;-69
2022/06/18 01:51:10;;;;;;;7.78;4.45;;;;;;;24.63;46.21;101597.72;5049113;28;20041;-69
2022/06/18 01:53:46;;;;;;;6.03;4.00;;;;;;;24.57;46.45;101594.84;5049561;28;20068;-69
2022/06/18 01:56:18;;;;;;;5.00;4.40;;;;;;;24.52;46.62;101595.34;5049830;28;20037;-68
2022/06/18 01:58:54;;;;;;;7.20;4.60;;;;;;;24.48;46.75;101596.75;5033231;28;20050;-69
2022/06/18 02:01:33;;;;;;;5.18;4.53;;;;;;;24.46;46.48;101597.97;5029681;28;20069;-70
2022/06/18 02:04:02;;;;;;;6.68;4.55;;;;;;;24.40;46.87;101597.66;5062170;28;20492;-69
2022/06/18 02:06:33;;;;;;;7.43;4.28;;;;;;;24.32;47.07;101596.88;5029728;28;20406;-69
2022/06/18 02:09:04;;;;;;;7.10;4.72;;;;;;;24.26;47.00;101592.91;5029669;28;20045;-69
2022/06/18 02:11:31;;;;;;;5.72;4.90;;;;;;;24.22;47.16;101586.06;5029119;28;20121;-69
2022/06/18 02:14:09;;;;;;;6.63;4.75;;;;;;;24.21;47.43;101587.13;5026420;28;20049;-69
2022/06/18 02:16:45;;;;;;;7.05;4.45;;;;;;;24.21;47.43;101587.13;5027632;28;20042;-69
2022/06/18 02:19:16;;;;;;;6.28;4.35;;;;;;;24.19;47.45;101583.69;5027528;28;20058;-70
2022/06/18 02:21:46;;;;;;;7.25;4.53;;;;;;;24.18;47.67;101587.47;5030089;28;20092;-70
2022/06/18 02:24:17;;;;;;;5.35;4.85;;;;;;;24.17;47.71;101577.53;5029189;28;20450;-70
2022/06/18 02:26:45;;;;;;;7.13;5.72;;;;;;;24.15;47.92;101576.84;5030219;28;20039;-70
2022/06/18 02:29:23;;;;;;;6.88;5.10;;;;;;;24.15;48.17;101578.75;5032200;28;20041;-70
2022/06/18 02:31:51;;;;;;;6.10;4.95;;;;;;;24.16;47.94;101583.19;5028170;28;20033;-70
2022/06/18 02:34:23;;;;;;;7.68;4.97;;;;;;;24.14;48.17;101575.16;5030260;28;20037;-70
2022/06/18 02:36:53;;;;;;;;;;;;;;;24.13;47.63;101573.44;5028529;28;20124;-69
2022/06/18 02:39:38;;;;;;;7.22;4.85;;;;;;;24.15;47.92;101573.25;5030467;28;19931;-69
2022/06/18 02:42:14;;;;;;;8.35;5.32;;;;;;;24.07;47.72;101580.50;5029896;28;20129;-69
2022/06/18 02:44:44;;;;;;;5.88;5.28;;;;;;;24.02;47.99;101571.94;5029489;28;20081;-70
2022/06/18 02:47:12;;;;;;;6.03;4.68;;;;;;;23.98;48.22;101578.84;5035730;28;20094;-70
2022/06/18 02:49:43;;;;;;;6.18;5.05;;;;;;;23.95;48.41;101581.06;5036713;28;20068;-70
2022/06/18 02:52:15;;;;;;;7.68;5.38;;;;;;;23.91;48.42;101583.31;5030697;28;20045;-71
2022/06/18 02:54:41;;;;;;;6.57;5.32;;;;;;;23.89;48.47;101582.66;5044496;28;20449;-71
2022/06/18 02:57:15;;;;;;;6.30;5.00;;;;;;;23.88;48.36;101580.09;5052692;28;20053;-71
2022/06/18 02:59:42;;;;;;;5.28;4.78;;;;;;;23.86;48.25;101584.88;5054144;28;20124;-71
2022/06/18 03:02:11;;;;;;;9.20;5.30;;;;;;;23.84;48.77;101586.97;5054260;28;20037;-71
2022/06/18 03:04:38;;;;;;;6.75;5.20;;;;;;;23.81;48.72;101582.69;5054064;28;20033;-71
2022/06/18 03:07:05;;;;;;;6.22;5.00;;;;;;;23.80;48.88;101588.34;5046506;28;20079;-72
2022/06/18 03:12:06;;;;;;;7.35;5.90;;;;;;;23.79;49.01;101592.13;5035006;28;20041;-70
2022/06/18 03:12:21;;;;;;;7.25;5.63;;;;;;;23.78;48.87;101591.22;5014009;28;20042;-71
2022/06/18 03:14:48;;;;;;;10.05;5.85;;;;;;;23.79;48.94;101592.97;5012510;28;20069;-71
2022/06/18 03:17:14;;;;;;;7.68;5.68;;;;;;;23.77;49.24;101595.00;5045743;28;20044;-70
2022/06/18 03:19:49;;;;;;;5.82;5.22;;;;;;;23.74;49.19;101593.47;5012578;28;20053;-71
2022/06/18 03:22:20;;;;;;;7.17;5.73;;;;;;;23.73;49.33;101590.91;5013958;28;20038;-71
2022/06/18 03:24:48;;;;;;;12.25;5.88;;;;;;;23.74;49.07;101589.88;5012504;28;20307;-71
2022/06/18 03:27:16;;;;;;;6.88;5.47;;;;;;;23.73;49.24;101596.41;5026985;28;20065;-71
2022/06/18 03:29:47;;;;;;;10.65;5.82;;;;;;;23.72;49.31;101594.69;5016392;28;20499;-71
2022/06/18 03:32:19;;;;;;;6.25;5.65;;;;;;;23.71;49.38;101592.97;5032571;28;20658;-71
2022/06/18 03:34:45;;;;;;;7.32;5.60;;;;;;;23.70;49.59;101596.75;5033198;28;20080;-69
2022/06/18 03:37:12;;;;;;;6.95;5.97;;;;;;;23.67;49.61;101586.97;5032105;28;20049;-69
2022/06/18 03:39:39;;;;;;;10.00;5.70;;;;;;;23.66;49.40;101592.66;5032178;28;20041;-70
2022/06/18 03:42:18;;;;;;;7.07;6.45;;;;;;;23.64;50.00;101602.94;5032551;28;20103;-70
2022/06/18 03:44:45;;;;;;;6.80;6.13;;;;;;;23.63;49.78;101595.75;5027937;28;20040;-69
2022/06/18 03:47:12;;;;;;;12.05;6.97;;;;;;;23.61;49.71;101600.53;5032130;28;20136;-69
2022/06/18 03:49:40;;;;;;;6.90;5.65;;;;;;;23.58;49.90;101595.41;5031935;28;20038;-70
2022/06/18 03:52:12;;;;;;;7.57;5.93;;;;;;;23.55;49.88;101606.75;5032176;28;20095;-71
2022/06/18 03:54:38;;;;;;;7.70;6.03;;;;;;;23.55;49.74;101609.47;5031576;28;20042;-70
2022/06/18 03:57:16;;;;;;;8.38;6.22;;;;;;;23.54;50.23;101603.09;5031755;28;20053;-70
2022/06/18 03:59:44;;;;;;;7.15;5.95;;;;;;;23.54;50.14;101603.09;5032870;28;20068;-70
2022/06/18 04:02:15;;;;;;;7.72;7.03;;;;;;;23.53;50.00;101600.53;5048037;28;20053;-71
2022/06/18 04:04:42;;;;;;;6.70;5.88;;;;;;;23.52;50.17;101596.09;5031036;28;20103;-70
2022/06/18 04:07:18;;;;;;;8.80;6.97;;;;;;;23.52;50.25;101596.09;5015733;28;20526;-71
2022/06/18 04:10:01;;;;;;;7.13;6.45;;;;;;;23.54;50.62;101594.88;5031571;28;20399;-71
2022/06/18 04:12:29;;;;;;;7.93;6.47;;;;;;;23.54;50.34;101592.13;5032053;28;20095;-71
2022/06/18 04:15:07;;;;;;;7.72;6.90;;;;;;;23.55;50.45;101588.41;5032187;28;20440;-71
2022/06/18 04:17:43;;;;;;;9.60;7.75;;;;;;;23.55;50.58;101593.03;5031339;28;20073;-71
2022/06/18 04:20:20;;;;;;;13.52;7.40;;;;;;;23.55;50.94;101584.81;5049164;28;20045;-71
2022/06/18 04:22:50;;;;;;;11.45;7.35;;;;;;;23.56;50.92;101592.00;5050909;28;20524;-71
2022/06/18 04:25:18;;;;;;;12.02;7.03;;;;;;;23.55;50.89;101588.41;5050584;28;20098;-71
2022/06/18 04:27:45;;;;;;;10.45;7.50;;;;;;;23.56;51.10;101581.88;5050935;28;20123;-72
2022/06/18 04:30:17;;;;;;;9.73;7.55;;;;;;;23.56;51.44;101576.41;5051010;28;20045;-71
2022/06/18 04:33:19;;;;;;;11.32;7.63;;;;;;;23.57;51.35;101582.75;5048535;28;20068;-71
2022/06/18 04:35:57;;;;;;;9.73;7.80;;;;;;;23.61;51.19;101581.34;5052196;28;20072;-71
2022/06/18 04:38:26;;;;;;;9.07;7.63;;;;;;;23.62;51.44;101577.59;5049960;28;20072;-71
2022/06/18 04:40:53;;;;;;;17.15;8.60;;;;;;;23.65;51.72;101574.47;5051953;28;20048;-71
2022/06/18 04:43:35;;;;;;;8.30;7.50;;;;;;;23.67;51.37;101576.00;5051831;28;20384;-71
2022/06/18 04:46:02;;;;;;;12.50;7.93;;;;;;;23.71;51.78;101584.75;5050296;28;20053;-71
2022/06/18 04:48:29;;;;;;;11.02;7.88;;;;;;;23.77;51.96;101584.03;5048508;28;20036;-71
2022/06/18 04:50:57;;;;;;;11.20;7.95;;;;;;;23.83;51.69;101590.72;5025030;28;20042;-71
2022/06/18 04:53:23;;;;;;;11.77;8.80;;;;;;;23.88;52.02;101589.16;5010886;28;20046;-72
2022/06/18 04:56:01;;;;;;;11.52;8.18;;;;;;;23.95;51.72;101589.31;5010959;28;20142;-70
2022/06/18 04:58:28;;;;;;;13.20;8.38;;;;;;;24.00;52.02;101590.47;5050075;28;20498;-70
2022/06/18 05:00:58;;;;;;;9.73;8.00;;;;;;;24.07;52.13;101585.13;5050389;28;20040;-70
2022/06/18 05:03:34;;;;;;;9.98;8.50;;;;;;;24.15;52.28;101584.25;5050428;28;20048;-71
2022/06/18 05:06:04;;;;;;;9.43;8.48;;;;;;;24.22;51.90;101590.72;5032127;28;20038;-70
2022/06/18 05:08:48;;;;;;;10.05;8.73;;;;;;;24.29;52.06;101597.22;5030322;28;20053;-70
2022/06/18 05:11:35;;;;;;;10.30;8.55;;;;;;;24.35;52.02;101602.00;5030435;28;20042;-71
2022/06/18 05:14:17;;;;;;;8.80;7.57;;;;;;;24.42;52.12;101597.50;5030827;28;20095;-70
2022/06/18 05:16:51;;;;;;;10.15;8.10;;;;;;;24.49;52.10;101595.72;5030815;28;20072;-70
2022/06/18 05:19:24;;;;;;;11.13;7.95;;;;;;;24.51;52.15;101596.41;5064023;28;20091;-71
2022/06/18 05:21:53;;;;;;;9.43;7.43;;;;;;;24.55;52.36;101602.41;5031113;28;20037;-70
2022/06/18 05:24:21;;;;;;;10.65;7.82;;;;;;;24.61;52.16;101602.53;5063482;28;20050;-71
2022/06/18 05:26:52;;;;;;;11.05;8.40;;;;;;;24.68;51.98;101602.66;5047094;28;20033;-70
2022/06/18 05:29:19;;;;;;;9.32;7.40;;;;;;;24.74;52.09;101607.41;5030043;28;20125;-71
2022/06/18 05:31:46;;;;;;;11.95;8.02;;;;;;;24.80;52.11;101606.69;5031170;28;20045;-70
2022/06/18 05:34:14;;;;;;;10.98;9.15;;;;;;;24.86;52.11;101608.69;5030035;28;20137;-71
2022/06/18 05:36:43;;;;;;;9.25;8.27;;;;;;;24.92;52.25;101615.34;5030901;28;20052;-71
2022/06/18 05:39:15;;;;;;;9.57;8.48;;;;;;;24.98;52.13;101606.41;5029876;28;20052;-70
2022/06/18 05:41:41;;;;;;;12.57;8.57;;;;;;;25.06;52.14;101609.06;5029746;28;20069;-71
2022/06/18 05:44:08;;;;;;;11.43;8.85;;;;;;;25.13;51.77;101623.78;5031389;28;20045;-70
2022/06/18 05:46:35;;;;;;;14.65;9.48;;;;;;;25.17;51.40;101611.38;5029603;28;20400;-70
2022/06/18 05:49:02;;;;;;;11.65;9.32;;;;;;;25.22;51.41;101613.56;5029854;28;20045;-70
2022/06/18 05:51:28;;;;;;;10.82;9.73;;;;;;;25.28;51.58;101616.47;5031346;28;20069;-71
2022/06/18 05:53:55;;;;;;;13.80;10.00;;;;;;;25.37;51.40;101619.13;5030660;28;20045;-71
2022/06/18 05:56:24;;;;;;;11.27;10.07;;;;;;;25.46;50.91;101624.34;5031156;28;20091;-71
2022/06/18 05:59:00;;;;;;;11.05;9.95;;;;;;;25.57;51.18;101612.03;5030720;28;20059;-71
2022/06/18 06:01:31;;;;;;;11.88;9.07;;;;;;;25.68;51.34;101608.84;5029739;28;20538;-72
2022/06/18 06:04:00;;;;;;;11.10;9.90;;;;;;;25.80;51.08;101614.72;5029495;28;20045;-71
2022/06/18 06:06:27;;;;;;;11.00;9.52;;;;;;;25.89;50.81;101611.69;5029723;28;20091;-71
2022/06/18 06:08:55;;;;;;;16.00;11.10;;;;;;;25.97;50.74;101608.84;5029621;28;20090;-71
2022/06/18 06:11:32;;;;;;;12.82;9.57;;;;;;;26.10;50.46;101610.09;5030506;28;20068;-70
2022/06/18 06:14:04;;;;;;;15.13;9.20;;;;;;;26.22;50.17;101603.03;5029592;28;20051;-71
2022/06/18 06:16:31;;;;;;;14.82;9.68;;;;;;;26.31;49.93;101595.50;5029521;28;20254;-71
2022/06/18 06:19:01;;;;;;;11.73;10.07;;;;;;;26.42;50.07;101593.13;5044501;28;20041;-71
2022/06/18 06:21:27;;;;;;;10.85;9.35;;;;;;;26.54;49.64;101594.31;5050655;28;20041;-71
2022/06/18 06:23:57;;;;;;;12.50;9.43;;;;;;;26.65;49.55;101592.09;5032209;28;20029;-71
2022/06/18 06:26:25;;;;;;;14.25;9.55;;;;;;;26.76;49.46;101588.84;5031526;28;20104;-71
2022/06/18 06:28:52;;;;;;;12.35;9.00;;;;;;;26.85;49.03;101582.16;5033461;28;20037;-70
2022/06/18 06:31:19;;;;;;;10.80;9.07;;;;;;;26.94;49.15;101583.72;5033943;28;20056;-70
2022/06/18 06:33:47;;;;;;;13.05;8.77;;;;;;;27.04;48.86;101584.25;5033746;28;20041;-70
2022/06/18 06:36:14;;;;;;;10.90;8.88;;;;;;;27.14;48.57;101592.19;5036697;28;20029;-71
2022/06/18 06:38:41;;;;;;;10.88;9.07;;;;;;;27.23;48.28;101583.56;5033792;28;20152;-70
2022/06/18 06:41:16;;;;;;;13.63;9.07;;;;;;;27.34;48.08;101592.34;5034156;28;20130;-70
2022/06/18 06:43:43;;;;;;;14.80;8.95;;;;;;;27.46;47.82;101596.25;5033393;28;20061;-70
2022/06/18 06:46:17;;;;;;;11.90;8.73;;;;;;;27.56;47.48;101596.78;5033753;28;20045;-72
2022/06/18 06:48:45;;;;;;;12.30;8.77;;;;;;;27.69;47.21;101593.28;5031310;28;20503;-68
2022/06/18 06:51:14;;;;;;;14.35;9.02;;;;;;;27.76;47.10;101586.72;5033979;28;20048;-69
2022/06/18 06:53:42;;;;;;;16.50;8.85;;;;;;;27.91;46.86;101594.03;5038667;28;20423;-69
2022/06/18 06:58:59;;;;;;;12.65;8.05;;;;;;;28.23;46.28;101597.97;5034938;28;20060;-69
2022/06/18 07:01:26;;;;;;;11.10;7.70;;;;;;;28.36;46.06;101587.91;5033859;28;20099;-68
2022/06/18 07:03:53;;;;;;;13.55;8.35;;;;;;;28.48;45.70;101591.75;5034390;28;20406;-69
2022/06/18 07:06:20;;;;;;;13.52;7.03;;;;;;;28.60;45.52;101594.75;5032542;28;20045;-68
2022/06/18 07:08:47;;;;;;;14.35;8.05;;;;;;;28.74;45.46;101590.09;5033841;28;20128;-69
2022/06/18 07:11:15;;;;;;;14.65;8.05;;;;;;;28.86;45.01;101593.13;5033654;28;20037;-69
2022/06/18 07:13:43;;;;;;;16.48;9.07;;;;;;;28.97;44.70;101590.56;5033721;28;20084;-68
2022/06/18 07:16:11;;;;;;;10.45;8.27;;;;;;;29.07;44.40;101596.56;5045662;28;20053;-69
2022/06/18 07:18:40;;;;;;;14.18;7.70;;;;;;;29.17;44.23;101589.75;5053224;28;20052;-68
2022/06/18 07:21:10;;;;;;;14.40;7.57;;;;;;;29.29;44.41;101599.09;5052977;28;20406;-68
2022/06/18 07:23:38;;;;;;;12.00;7.95;;;;;;;29.44;43.77;101590.59;5054338;28;20065;-69
2022/06/18 07:26:06;;;;;;;11.57;7.57;;;;;;;29.53;43.59;101595.69;5054425;28;20032;-68
2022/06/18 07:28:39;;;;;;;18.73;8.07;;;;;;;29.67;43.35;101602.06;5054259;28;20049;-69
2022/06/18 07:31:06;;;;;;;15.20;8.82;;;;;;;29.78;43.15;101590.34;5051783;28;20042;-69
2022/06/18 07:33:35;;;;;;;13.27;8.57;;;;;;;29.87;42.78;101589.03;5053233;28;20064;-68
2022/06/18 07:36:01;;;;;;;12.98;7.97;;;;;;;29.94;42.79;101591.78;5053455;28;20102;-69
2022/06/18 07:38:28;;;;;;;12.05;7.10;;;;;;;30.03;42.73;101593.25;5052812;28;20466;-68
2022/06/18 07:40:55;;;;;;;11.02;6.97;;;;;;;30.14;42.46;101591.72;5052855;28;20051;-68
2022/06/18 07:43:42;;;;;;;12.77;7.22;;;;;;;30.20;42.22;101585.31;5053009;28;20090;-68
2022/06/18 07:46:12;;;;;;;16.70;7.65;;;;;;;30.28;41.95;101588.66;5051522;28;20044;-68
2022/06/18 07:48:41;;;;;;;11.15;6.97;;;;;;;30.31;41.90;101588.22;5052793;28;20041;-67
2022/06/18 07:51:08;;;;;;;14.32;7.72;;;;;;;30.37;41.67;101580.94;5052970;28;20123;-67
2022/06/18 07:53:35;;;;;;;12.85;6.68;;;;;;;30.42;41.71;101574.75;5047088;28;20033;-67
2022/06/18 07:56:03;;;;;;;12.75;6.55;;;;;;;30.51;41.70;101582.59;5032934;28;20235;-67
2022/06/18 07:58:30;;;;;;;11.13;6.68;;;;;;;30.62;41.42;101575.53;5033058;28;20041;-67
2022/06/18 08:00:58;;;;;;;18.50;7.13;;;;;;;30.72;41.24;101575.88;5032742;28;20103;-67
2022/06/18 08:03:27;;;;;;;13.10;6.38;;;;;;;30.81;41.17;101568.97;5032860;28;20048;-67
2022/06/18 08:05:55;;;;;;;12.02;6.80;;;;;;;30.91;41.05;101568.47;5032780;28;20410;-67
2022/06/18 08:08:22;;;;;;;13.98;6.68;;;;;;;30.99;40.43;101565.44;5032663;28;20034;-67
2022/06/18 08:11:07;;;;;;;9.88;6.55;;;;;;;31.09;40.39;101567.69;5031589;28;20049;-67
2022/06/18 08:13:34;;;;;;;13.75;7.20;;;;;;;31.19;40.18;101559.72;5032502;28;20119;-67
2022/06/18 08:16:01;;;;;;;12.88;6.55;;;;;;;31.25;40.14;101561.63;5032541;28;20249;-67
2022/06/18 08:18:27;;;;;;;11.38;6.38;;;;;;;31.35;39.75;101564.72;5032460;28;20067;-67
2022/06/18 08:21:01;;;;;;;10.52;7.40;;;;;;;31.39;39.75;101560.41;5032268;28;20377;-67
2022/06/18 08:23:28;;;;;;;8.68;6.65;;;;;;;31.49;39.97;101557.94;5033987;28;20172;-65
2022/06/18 08:25:55;;;;;;;14.93;7.88;;;;;;;31.57;39.61;101554.03;5052534;28;20102;-66
2022/06/18 08:28:22;;;;;;;11.90;6.30;;;;;;;31.63;39.55;101555.03;5050690;28;20045;-67
2022/06/18 08:30:49;;;;;;;12.15;7.32;;;;;;;31.68;39.46;101550.47;5052224;28;20102;-66
2022/06/18 08:33:17;;;;;;;13.82;9.00;;;;;;;31.76;39.67;101547.41;5034822;28;20045;-67
2022/06/18 08:35:44;;;;;;;11.07;7.88;;;;;;;31.84;39.78;101549.88;5032185;28;20050;-67
2022/06/18 08:38:12;;;;;;;9.85;6.95;;;;;;;31.90;39.51;101551.72;5032208;28;20530;-67
2022/06/18 08:40:56;;;;;;;11.27;6.60;;;;;;;31.97;39.22;101548.91;5031930;28;20045;-66
2022/06/18 08:43:33;;;;;;;12.30;6.95;;;;;;;32.07;39.10;101543.63;5012501;28;20530;-66
2022/06/18 08:46:17;;;;;;;13.27;7.40;;;;;;;32.17;38.45;101551.41;5012182;28;20115;-67
2022/06/18 08:49:09;;;;;;;15.53;7.00;;;;;;;32.31;38.81;101547.41;5012424;28;20088;-67
2022/06/18 08:51:49;;;;;;;10.68;6.32;;;;;;;32.45;38.48;101550.81;5013446;28;20488;-66
2022/06/18 08:54:45;;;;;;;10.88;7.00;;;;;;;32.53;38.35;101553.25;5012384;28;20125;-66
2022/06/18 08:57:35;;;;;;;14.45;8.48;;;;;;;32.60;37.94;101553.16;5044064;28;20053;-66
2022/06/18 09:00:11;;;;;;;10.00;6.88;;;;;;;32.63;37.64;101552.69;5034518;28;20136;-66
2022/06/18 09:02:39;;;;;;;14.18;7.00;;;;;;;32.67;37.85;101551.97;5010502;28;20046;-67
2022/06/18 09:06:17;;;;;;;12.35;7.57;;;;;;;32.80;37.47;101559.31;5021474;28;20041;-67
2022/06/18 09:09:01;;;;;;;14.90;7.15;;;;;;;32.82;36.97;101559.94;5031458;28;20033;-66
2022/06/18 09:11:34;;;;;;;16.05;7.28;;;;;;;32.88;36.56;101560.91;5031513;28;20045;-67
2022/06/18 09:14:11;;;;;;;12.48;6.47;;;;;;;32.93;37.03;101553.53;5031510;28;20041;-67
2022/06/18 09:16:43;;;;;;;10.60;7.03;;;;;;;33.00;36.59;101559.84;5046095;28;20048;-66
2022/06/18 09:19:17;;;;;;;10.82;7.65;;;;;;;33.10;36.48;101562.03;5049247;28;20049;-67
2022/06/18 09:21:51;;;;;;;14.73;7.35;;;;;;;33.18;36.38;101564.44;5049967;28;20041;-67
2022/06/18 09:24:23;;;;;;;9.60;6.35;;;;;;;33.27;35.90;101567.72;5049610;28;20053;-66
2022/06/18 09:26:57;;;;;;;17.90;6.65;;;;;;;33.33;35.54;101566.78;5049606;28;20037;-67
2022/06/18 09:29:24;;;;;;;;;;;;;;;33.36;35.84;101564.34;5045322;28;20037;-66
2022/06/18 09:32:00;;;;;;;9.45;4.85;;;;;;;33.50;35.53;101559.41;5031889;28;19921;-67
2022/06/18 09:34:35;;;;;;;9.02;5.07;;;;;;;33.56;35.15;101563.16;5031202;28;20079;-66
2022/06/18 09:37:04;;;;;;;;;;;;;;;33.58;35.57;101556.25;5031710;28;20037;-67
2022/06/18 09:39:40;;;;;;;12.15;8.82;;;;;;;33.65;35.10;101556.97;5017014;28;19921;-67
2022/06/18 09:42:20;;;;;;;16.17;7.78;;;;;;;33.72;35.24;101549.31;5030684;28;20085;-68
2022/06/18 09:44:56;;;;;;;11.70;6.65;;;;;;;33.82;35.25;101545.94;5031045;28;20539;-67
2022/06/18 09:47:33;;;;;;;12.63;7.10;;;;;;;33.89;35.14;101534.66;5032144;28;20063;-67
2022/06/18 09:50:01;;;;;;;14.75;7.65;;;;;;;33.98;35.16;101539.59;5031151;28;20052;-66
2022/06/18 09:52:35;;;;;;;15.88;7.75;;;;;;;34.08;34.74;101534.22;5030621;28;20046;-66
2022/06/18 09:55:07;;;;;;;14.80;6.83;;;;;;;34.17;34.73;101537.44;5032552;28;20030;-67
2022/06/18 09:57:40;;;;;;;13.90;7.38;;;;;;;34.29;35.16;101532.69;5016849;28;20038;-67
2022/06/18 10:00:08;;;;;;;13.23;6.93;;;;;;;34.37;34.98;101525.91;5040258;28;20284;-67
2022/06/18 10:02:41;;;;;;;13.90;6.80;;;;;;;34.43;34.94;101527.69;5051836;28;20132;-67
2022/06/18 10:08:02;;;;;;;15.13;6.68;;;;;;;34.77;34.85;101524.94;5035918;28;20037;-67
2022/06/18 10:10:33;;;;;;;12.23;6.78;;;;;;;34.92;34.84;101525.22;5034716;28;20037;-67
2022/06/18 10:13:12;;;;;;;11.95;6.97;;;;;;;34.96;34.19;101516.09;5035606;28;20293;-67
2022/06/18 10:15:39;;;;;;;15.27;6.53;;;;;;;34.98;34.19;101513.91;5014985;28;20157;-67
2022/06/18 10:18:31;;;;;;;10.48;5.80;;;;;;;35.00;34.02;101513.66;5015171;28;20049;-67
2022/06/18 10:21:02;;;;;;;12.07;5.93;;;;;;;35.07;34.67;101513.47;5016760;28;20054;-66
2022/06/18 10:23:51;;;;;;;9.38;6.38;;;;;;;35.18;34.22;101523.69;5014360;28;20357;-67
2022/06/18 10:26:37;;;;;;;11.30;6.22;;;;;;;35.15;33.75;101513.88;5014784;28;20081;-67
2022/06/18 10:29:33;;;;;;;14.20;6.95;;;;;;;35.12;33.80;101519.13;5014806;28;20038;-68
2022/06/18 10:32:15;;;;;;;13.90;6.05;;;;;;;35.11;33.08;101521.09;5050768;28;20064;-66
2022/06/18 10:34:51;;;;;;;12.27;6.35;;;;;;;35.14;32.95;101517.78;5053135;28;20064;-66
2022/06/18 10:37:53;;;;;;;13.35;7.05;;;;;;;35.15;33.12;101518.63;5054381;28;20033;-67
2022/06/18 10:40:47;;;;;;;13.25;7.13;;;;;;;35.22;33.08;101506.16;5054164;28;20414;-67
2022/06/18 10:43:33;;;;;;;11.38;5.90;;;;;;;35.27;33.54;101511.84;5052465;28;20135;-67
2022/06/18 10:46:10;;;;;;;13.90;6.95;;;;;;;35.37;33.16;101508.38;5054188;28;20037;-67
2022/06/18 10:48:37;;;;;;;14.65;6.90;;;;;;;35.49;32.94;101505.47;5052614;28;20041;-67
2022/06/18 10:51:13;;;;;;;11.57;6.35;;;;;;;35.53;32.72;101506.63;5050313;28;20040;-66
2022/06/18 10:53:58;;;;;;;11.02;6.97;;;;;;;35.53;32.08;101499.09;5053349;28;20076;-67
2022/06/18 10:56:29;;;;;;;13.02;6.88;;;;;;;35.56;32.35;101500.53;5053909;28;20040;-67
2022/06/18 10:58:59;;;;;;;10.13;6.07;;;;;;;35.56;31.90;101498.56;5053733;28;20459;-67
2022/06/18 11:01:44;;;;;;;12.05;6.30;;;;;;;35.60;31.92;101490.50;5041176;28;20053;-67
2022/06/18 11:04:24;;;;;;;11.43;5.63;;;;;;;35.65;32.46;101490.59;5033775;28;20054;-67
2022/06/18 11:07:00;;;;;;;10.68;6.70;;;;;;;35.76;32.23;101489.63;5033088;28;20033;-67
2022/06/18 11:09:57;;;;;;;11.00;5.38;;;;;;;35.84;32.11;101492.00;5031281;28;20108;-67
2022/06/18 11:12:34;;;;;;;10.52;5.70;;;;;;;35.88;31.70;101481.97;5031359;28;20030;-67
2022/06/18 11:15:03;;;;;;;16.33;5.72;;;;;;;35.89;31.29;101480.03;5030285;28;20077;-67
2022/06/18 11:17:41;;;;;;;13.00;5.97;;;;;;;35.97;31.36;101479.56;5033192;28;20044;-67
2022/06/18 11:20:23;;;;;;;9.45;5.13;;;;;;;35.98;31.24;101475.66;5030263;28;20042;-67
2022/06/18 11:23:04;;;;;;;9.98;5.57;;;;;;;35.96;31.17;101473.13;5031620;28;20037;-68
2022/06/18 11:25:46;;;;;;;12.02;5.80;;;;;;;36.04;30.91;101459.78;5033357;28;20077;-64
2022/06/18 11:28:18;;;;;;;;;;;;;;;36.07;31.13;101457.31;5030058;28;20120;-64
2022/06/18 11:30:47;;;;;;;11.88;5.03;;;;;;;36.20;31.07;101456.03;5035670;28;20295;-64
2022/06/18 11:33:36;;;;;;;13.48;4.90;;;;;;;36.21;30.24;101452.13;5032589;28;20786;-64
2022/06/18 11:36:34;;;;;;;13.50;5.13;;;;;;;36.27;30.56;101448.25;5033144;28;20132;-65
2022/06/18 11:39:02;;;;;;;11.65;5.15;;;;;;;36.28;30.49;101441.56;5030847;28;20038;-65
2022/06/18 11:41:44;;;;;;;9.57;5.80;;;;;;;36.30;30.34;101428.19;5032698;28;20049;-65
2022/06/18 11:44:21;;;;;;;10.32;4.90;;;;;;;36.43;30.50;101430.56;5033029;28;20099;-65
2022/06/18 11:47:16;;;;;;;8.70;4.97;;;;;;;36.60;30.34;101425.66;5033071;28;20088;-65
2022/06/18 11:50:04;;;;;;;11.93;5.32;;;;;;;36.78;30.24;101426.38;5041036;28;20064;-66
2022/06/18 11:53:02;;;;;;;13.80;6.32;;;;;;;36.78;29.77;101423.59;5040744;28;20037;-65
2022/06/18 11:55:39;;;;;;;10.65;5.40;;;;;;;36.72;29.77;101416.22;5032099;28;20071;-67